createdAt,value
2022-08-18T00:02:23.900Z,13.68
2022-08-18T00:04:57.242Z,14.35
2022-08-18T00:07:29.114Z,14.30
2022-08-18T00:09:58.848Z,13.32
2022-08-18T00:12:38.291Z,13.98
2022-08-18T00:15:08.591Z,14.48
2022-08-18T00:17:37.969Z,14.05
2022-08-18T00:20:09.804Z,14.07
2022-08-18T00:22:40.004Z,14.18
2022-08-18T00:25:10.198Z,14.10
2022-08-18T00:27:38.486Z,14.98
2022-08-18T00:30:09.826Z,14.60
2022-08-18T00:32:39.899Z,15.00
2022-08-18T00:35:40.032Z,14.60
2022-08-18T00:38:08.530Z,13.95
2022-08-18T00:40:53.026Z,13.32
2022-08-18T00:43:29.020Z,13.45
2022-08-18T00:45:57.114Z,13.35
2022-08-18T00:48:25.949Z,13.93
2022-08-18T00:50:56.019Z,12.48
2022-08-18T00:53:44.153Z,13.82
2022-08-18T00:56:19.725Z,14.95
2022-08-18T00:59:09.626Z,13.40
2022-08-18T01:01:38.195Z,13.60
2022-08-18T01:04:10.631Z,14.23
2022-08-18T01:06:48.839Z,14.02
2022-08-18T01:09:18.143Z,13.60
2022-08-18T01:11:46.254Z,14.27
2022-08-18T01:14:16.202Z,13.18
2022-08-18T01:17:06.370Z,13.48
2022-08-18T01:19:53.161Z,13.70
2022-08-18T01:22:47.834Z,13.57
2022-08-18T01:25:35.581Z,13.30
2022-08-18T01:28:04.305Z,14.25
2022-08-18T01:30:35.428Z,12.60
2022-08-18T01:33:03.447Z,14.05
2022-08-18T01:35:36.244Z,13.68
2022-08-18T01:38:13.438Z,13.75
2022-08-18T01:41:22.837Z,14.55
2022-08-18T01:43:30.401Z,13.27
2022-08-18T01:46:01.223Z,13.95
2022-08-18T01:48:33.163Z,13.98
2022-08-18T01:51:03.037Z,14.02
2022-08-18T01:53:31.816Z,13.30
2022-08-18T01:55:59.826Z,14.30
2022-08-18T01:58:31.787Z,13.82
2022-08-18T02:01:01.795Z,13.98
2022-08-18T02:03:33.366Z,13.88
2022-08-18T02:06:02.729Z,14.40
2022-08-18T02:08:31.866Z,14.70
2022-08-18T02:11:01.720Z,15.45
2022-08-18T02:13:29.748Z,15.02
2022-08-18T02:15:58.701Z,17.67
2022-08-18T02:18:47.014Z,17.23
2022-08-18T02:21:19.275Z,17.63
2022-08-18T02:23:53.348Z,20.27
2022-08-18T02:26:23.596Z,20.00
2022-08-18T02:28:51.740Z,17.50
2022-08-18T02:31:21.557Z,16.60
2022-08-18T02:33:52.406Z,17.42
2022-08-18T02:36:21.265Z,24.63
2022-08-18T02:38:59.335Z,17.85
2022-08-18T02:41:29.742Z,17.67
2022-08-18T02:43:59.135Z,18.10
2022-08-18T02:46:29.240Z,17.88
2022-08-18T02:49:00.412Z,18.00
2022-08-18T02:51:28.583Z,19.17
2022-08-18T02:53:59.415Z,18.27
2022-08-18T02:56:40.018Z,19.63
2022-08-18T02:59:15.919Z,19.33
2022-08-18T03:01:48.092Z,19.40
2022-08-18T03:04:22.055Z,21.13
2022-08-18T03:06:54.776Z,20.45
2022-08-18T03:09:22.922Z,20.05
2022-08-18T03:11:59.929Z,18.38
2022-08-18T03:14:28.297Z,18.55
2022-08-18T03:16:56.384Z,18.05
2022-08-18T03:19:28.787Z,18.40
2022-08-18T03:22:02.597Z,18.52
2022-08-18T03:24:32.146Z,16.98
2022-08-18T03:27:01.819Z,17.08
2022-08-18T03:29:32.699Z,17.17
2022-08-18T03:32:05.947Z,16.90
2022-08-18T03:34:34.311Z,16.80
2022-08-18T03:37:02.354Z,17.23
2022-08-18T03:39:30.632Z,16.05
2022-08-18T03:42:01.510Z,15.27
2022-08-18T03:44:31.732Z,15.40
2022-08-18T03:47:00.451Z,17.05
2022-08-18T03:49:28.407Z,16.42
2022-08-18T03:51:56.515Z,15.80
2022-08-18T03:54:24.476Z,16.80
2022-08-18T03:59:43.888Z,16.20
2022-08-18T04:02:12.462Z,16.83
2022-08-18T04:04:43.245Z,16.95
2022-08-18T04:07:12.099Z,16.95
2022-08-18T04:09:40.098Z,18.50
2022-08-18T04:12:15.301Z,19.20
2022-08-18T04:14:48.607Z,18.55
2022-08-18T04:17:25.031Z,18.48
2022-08-18T04:19:54.277Z,17.48
2022-08-18T04:22:23.578Z,17.80
2022-08-18T04:24:51.753Z,18.17
2022-08-18T04:27:22.860Z,18.42
2022-08-18T04:29:50.842Z,17.98
2022-08-18T04:32:19.753Z,19.33
2022-08-18T04:34:47.950Z,17.45
2022-08-18T04:37:17.365Z,18.48
2022-08-18T04:39:45.981Z,17.63
2022-08-18T04:42:14.320Z,19.88
2022-08-18T04:44:43.036Z,18.23
2022-08-18T04:47:13.461Z,18.15
2022-08-18T04:49:41.511Z,18.67
2022-08-18T04:52:38.614Z,16.52
2022-08-18T04:55:10.513Z,17.77
2022-08-18T04:57:38.622Z,18.40
2022-08-18T05:00:13.826Z,19.45
2022-08-18T05:02:42.682Z,19.67
2022-08-18T05:05:11.300Z,18.50
2022-08-18T05:07:46.135Z,17.95
2022-08-18T05:10:17.991Z,19.73
2022-08-18T05:12:48.534Z,18.05
2022-08-18T05:15:19.257Z,18.55
2022-08-18T05:17:51.140Z,17.55
2022-08-18T05:20:20.090Z,18.17
2022-08-18T05:22:48.043Z,22.35
2022-08-18T05:28:03.507Z,18.08
2022-08-18T05:30:32.629Z,18.10
2022-08-18T05:33:01.769Z,17.90
2022-08-18T05:35:33.806Z,17.98
2022-08-18T05:38:31.268Z,17.10
2022-08-18T05:41:05.479Z,17.95
2022-08-18T05:43:36.523Z,17.33
2022-08-18T05:46:14.018Z,17.95
2022-08-18T05:48:43.998Z,17.55
2022-08-18T05:51:16.168Z,16.58
2022-08-18T05:54:02.789Z,16.67
2022-08-18T05:56:48.367Z,18.85
2022-08-18T05:59:20.506Z,16.97
2022-08-18T06:02:18.670Z,17.58
2022-08-18T06:04:52.798Z,16.63
2022-08-18T06:07:41.206Z,18.70
2022-08-18T06:10:10.598Z,17.55
2022-08-18T06:12:46.950Z,18.35
2022-08-18T06:15:39.651Z,18.95
2022-08-18T06:18:30.181Z,18.90
2022-08-18T06:21:20.013Z,18.48
2022-08-18T06:24:12.282Z,19.77
2022-08-18T06:26:56.301Z,17.55
2022-08-18T06:29:47.494Z,17.92
2022-08-18T06:32:42.025Z,19.30
2022-08-18T06:35:18.522Z,18.92
2022-08-18T06:38:22.960Z,18.52
2022-08-18T06:41:00.428Z,19.08
2022-08-18T06:43:28.926Z,18.75
2022-08-18T06:45:57.488Z,18.83
2022-08-18T06:48:33.443Z,19.30
2022-08-18T06:51:02.401Z,17.60
2022-08-18T06:53:49.833Z,19.25
2022-08-18T06:56:28.798Z,19.15
2022-08-18T06:59:26.333Z,20.58
2022-08-18T07:02:00.419Z,20.38
2022-08-18T07:04:37.598Z,21.02
2022-08-18T07:07:20.808Z,19.48
2022-08-18T07:09:49.905Z,20.05
2022-08-18T07:12:32.569Z,21.00
2022-08-18T07:15:02.442Z,21.42
2022-08-18T07:17:43.100Z,21.65
2022-08-18T07:20:23.871Z,21.92
2022-08-18T07:22:55.365Z,23.50
2022-08-18T07:25:29.842Z,23.20
2022-08-18T07:28:02.064Z,24.00
2022-08-18T07:30:33.390Z,23.92
2022-08-18T07:33:28.351Z,23.90
2022-08-18T07:36:04.374Z,23.23
2022-08-18T07:38:43.036Z,23.27
2022-08-18T07:41:27.994Z,21.92
2022-08-18T07:44:16.661Z,23.35
2022-08-18T07:47:00.742Z,24.25
2022-08-18T07:49:35.370Z,23.60
2022-08-18T07:52:36.673Z,24.20
2022-08-18T07:55:27.701Z,22.75
2022-08-18T07:58:06.905Z,22.83
2022-08-18T08:01:00.113Z,21.38
2022-08-18T08:04:09.456Z,22.48
2022-08-18T08:07:24.010Z,22.63
2022-08-18T08:10:19.091Z,21.40
2022-08-18T08:12:47.341Z,20.88
2022-08-18T08:15:30.764Z,20.60
2022-08-18T08:18:17.491Z,20.23
2022-08-18T08:20:52.187Z,21.25
2022-08-18T08:24:01.287Z,22.02
2022-08-18T08:27:09.274Z,20.63
2022-08-18T08:30:02.012Z,21.60
2022-08-18T08:32:39.743Z,19.33
2022-08-18T08:35:47.065Z,19.52
2022-08-18T08:38:42.378Z,18.30
2022-08-18T08:41:25.916Z,21.05
2022-08-18T08:44:03.658Z,17.60
2022-08-18T08:46:42.033Z,17.38
2022-08-18T08:49:18.529Z,16.70
2022-08-18T08:51:50.090Z,19.73
2022-08-18T08:54:23.663Z,16.30
2022-08-18T08:56:53.893Z,16.42
2022-08-18T08:59:22.853Z,15.18
2022-08-18T09:02:08.191Z,15.32
2022-08-18T09:05:08.453Z,14.38
2022-08-18T09:07:48.289Z,14.05
2022-08-18T09:10:55.288Z,12.82
2022-08-18T09:13:48.290Z,13.40
2022-08-18T09:16:38.444Z,23.10
2022-08-18T09:19:12.354Z,13.30
2022-08-18T09:21:48.096Z,12.85
2022-08-18T09:24:23.228Z,13.43
2022-08-18T09:27:16.665Z,14.52
2022-08-18T09:29:59.452Z,15.10
2022-08-18T09:32:42.882Z,13.93
2022-08-18T09:35:30.496Z,15.07
2022-08-18T09:38:43.972Z,13.57
2022-08-18T09:41:32.709Z,14.98
2022-08-18T09:44:21.155Z,13.30
2022-08-18T09:46:52.255Z,12.93
2022-08-18T09:49:23.443Z,13.13
2022-08-18T09:51:55.942Z,13.90
2022-08-18T09:54:29.281Z,13.60
2022-08-18T09:57:10.187Z,11.77
2022-08-18T09:59:46.186Z,13.05
2022-08-18T10:02:28.474Z,13.52
2022-08-18T10:05:20.007Z,16.17
2022-08-18T10:07:50.139Z,15.18
2022-08-18T10:11:01.401Z,14.45
2022-08-18T10:17:13.199Z,14.43
2022-08-18T10:19:53.696Z,15.02
2022-08-18T10:22:39.831Z,15.13
2022-08-18T10:25:22.859Z,14.57
2022-08-18T10:27:54.465Z,14.90
2022-08-18T10:34:00.138Z,14.10
2022-08-18T10:36:52.990Z,16.23
2022-08-18T10:39:41.817Z,17.05
2022-08-18T10:42:23.377Z,13.30
2022-08-18T10:45:25.865Z,14.85
2022-08-18T10:48:24.379Z,13.73
2022-08-18T10:51:22.857Z,13.50
2022-08-18T10:54:19.707Z,12.75
2022-08-18T10:56:50.785Z,13.30
2022-08-18T10:59:50.817Z,12.80
2022-08-18T11:02:37.187Z,13.07
2022-08-18T11:05:07.882Z,14.02
2022-08-18T11:07:39.679Z,13.52
2022-08-18T11:13:29.434Z,13.55
2022-08-18T11:16:04.161Z,13.35
2022-08-18T11:18:45.913Z,13.55
2022-08-18T11:21:31.657Z,12.65
2022-08-18T11:24:11.844Z,12.82
2022-08-18T11:26:53.099Z,14.90
2022-08-18T11:29:27.082Z,13.60
2022-08-18T11:35:00.061Z,14.77
2022-08-18T11:37:51.565Z,13.88
2022-08-18T11:43:41.822Z,14.23
2022-08-18T11:46:12.718Z,11.65
2022-08-18T11:51:33.920Z,10.05
2022-08-18T11:54:13.798Z,9.35
2022-08-18T11:56:41.707Z,9.13
2022-08-18T11:59:52.321Z,9.18
2022-08-18T12:02:18.480Z,9.10
2022-08-18T12:07:38.928Z,8.48
2022-08-18T12:10:29.276Z,9.73
2022-08-18T12:13:00.639Z,9.73
2022-08-18T12:15:46.648Z,9.05
2022-08-18T12:21:11.306Z,9.63
2022-08-18T12:26:38.606Z,9.85
2022-08-18T12:29:18.607Z,10.65
2022-08-18T12:31:53.059Z,9.77
2022-08-18T12:34:27.439Z,9.77
2022-08-18T12:36:56.953Z,8.80
2022-08-18T12:39:25.256Z,8.77
2022-08-18T12:41:53.127Z,8.90
2022-08-18T12:44:21.196Z,8.40
2022-08-18T12:46:49.472Z,8.80
2022-08-18T12:49:19.491Z,8.85
2022-08-18T12:51:51.775Z,7.50
2022-08-18T12:54:20.023Z,7.75
2022-08-18T12:56:52.230Z,8.20
2022-08-18T12:59:20.279Z,8.25
2022-08-18T13:01:48.263Z,7.60
2022-08-18T13:04:18.679Z,7.50
2022-08-18T13:07:00.635Z,7.97
2022-08-18T13:09:35.016Z,7.97
2022-08-18T13:12:17.385Z,7.53
2022-08-18T13:14:45.880Z,8.38
2022-08-18T13:17:29.684Z,7.85
2022-08-18T13:20:13.530Z,7.93
2022-08-18T13:22:41.912Z,8.40
2022-08-18T13:25:12.924Z,8.65
2022-08-18T13:27:58.116Z,7.88
2022-08-18T13:30:31.567Z,8.25
2022-08-18T13:33:02.518Z,8.07
2022-08-18T13:35:38.385Z,8.48
2022-08-18T13:38:20.675Z,8.38
2022-08-18T13:40:50.830Z,8.52
2022-08-18T13:43:21.737Z,8.35
2022-08-18T13:45:52.812Z,8.55
2022-08-18T13:48:24.181Z,8.32
2022-08-18T13:50:56.509Z,8.63
2022-08-18T13:53:26.285Z,9.38
2022-08-18T13:55:58.642Z,8.50
2022-08-18T13:58:29.981Z,9.35
2022-08-18T14:01:42.010Z,9.30
2022-08-18T14:03:54.432Z,9.07
2022-08-18T14:06:24.002Z,9.13
2022-08-18T14:08:52.767Z,9.65
2022-08-18T14:11:26.902Z,9.48
2022-08-18T14:13:57.031Z,9.32
2022-08-18T14:16:26.723Z,9.20
2022-08-18T14:19:14.074Z,9.07
2022-08-18T14:22:11.259Z,9.55
2022-08-18T14:24:58.830Z,10.30
2022-08-18T14:27:35.086Z,9.90
2022-08-18T14:30:08.947Z,9.27
2022-08-18T14:32:37.028Z,9.98
2022-08-18T14:36:03.650Z,9.40
2022-08-18T14:38:07.276Z,9.23
2022-08-18T14:40:43.141Z,10.50
2022-08-18T14:43:14.217Z,9.05
2022-08-18T14:45:50.044Z,8.07
2022-08-18T14:48:22.002Z,8.18
2022-08-18T14:50:53.124Z,8.13
2022-08-18T14:53:24.318Z,8.60
2022-08-18T14:55:55.075Z,7.03
2022-08-18T14:58:27.964Z,8.05
2022-08-18T15:00:57.138Z,8.13
2022-08-18T15:03:30.936Z,7.38
2022-08-18T15:06:04.506Z,7.85
2022-08-18T15:08:35.710Z,7.65
2022-08-18T15:11:11.619Z,7.63
2022-08-18T15:13:42.234Z,8.48
2022-08-18T15:16:32.495Z,8.57
2022-08-18T15:19:58.796Z,8.63
2022-08-18T15:22:12.991Z,8.80
2022-08-18T15:25:02.289Z,7.88
2022-08-18T15:27:43.217Z,8.50
2022-08-18T15:30:19.581Z,9.23
2022-08-18T15:32:49.738Z,9.00
2022-08-18T15:35:19.395Z,8.52
2022-08-18T15:37:51.053Z,8.43
2022-08-18T15:40:30.793Z,9.52
2022-08-18T15:43:10.076Z,10.75
2022-08-18T15:45:56.253Z,11.07
2022-08-18T15:50:54.626Z,8.93
2022-08-18T15:53:29.949Z,8.60
2022-08-18T15:55:58.378Z,10.05
2022-08-18T15:58:32.422Z,9.25
2022-08-18T16:01:00.553Z,9.30
2022-08-18T16:03:29.216Z,9.98
2022-08-18T16:06:02.464Z,8.65
2022-08-18T16:08:31.646Z,9.57
2022-08-18T16:11:01.123Z,9.30
2022-08-18T16:13:29.496Z,9.30
2022-08-18T16:15:57.488Z,9.18
2022-08-18T16:18:27.639Z,9.13
2022-08-18T16:20:56.822Z,9.52
2022-08-18T16:23:24.963Z,9.48
2022-08-18T16:25:53.330Z,10.00
2022-08-18T16:28:21.257Z,9.38
2022-08-18T16:31:02.875Z,9.20
2022-08-18T16:33:31.380Z,9.40
2022-08-18T16:36:06.806Z,11.95
2022-08-18T16:38:36.099Z,10.35
2022-08-18T16:41:08.832Z,10.55
2022-08-18T16:43:40.026Z,9.85
2022-08-18T16:46:16.528Z,10.60
2022-08-18T16:48:46.078Z,10.18
2022-08-18T16:51:15.791Z,10.93
2022-08-18T16:53:45.766Z,11.85
2022-08-18T16:56:22.642Z,12.95
2022-08-18T16:59:10.278Z,11.68
2022-08-18T17:01:56.850Z,11.85
2022-08-18T17:04:28.809Z,11.38
2022-08-18T17:06:58.869Z,12.52
2022-08-18T17:09:28.482Z,12.80
2022-08-18T17:11:57.585Z,11.52
2022-08-18T17:14:26.552Z,11.85
2022-08-18T17:16:55.601Z,12.60
2022-08-18T17:19:27.087Z,13.07
2022-08-18T17:21:57.305Z,12.60
2022-08-18T17:24:31.382Z,13.55
2022-08-18T17:27:26.180Z,13.57
2022-08-18T17:30:18.136Z,13.68
2022-08-18T17:32:52.482Z,13.80
2022-08-18T17:35:46.956Z,14.57
2022-08-18T17:38:36.602Z,14.27
2022-08-18T17:41:14.466Z,14.52
2022-08-18T17:46:27.622Z,14.32
2022-08-18T17:49:04.301Z,13.75
2022-08-18T17:51:42.526Z,14.23
2022-08-18T17:54:41.026Z,13.30
2022-08-18T17:57:14.803Z,13.45
2022-08-18T18:00:09.813Z,14.10
2022-08-18T18:02:42.186Z,14.38
2022-08-18T18:05:12.391Z,12.90
2022-08-18T18:07:55.214Z,13.25
2022-08-18T18:19:03.243Z,13.80
2022-08-18T18:22:00.405Z,12.52
2022-08-18T18:24:29.082Z,14.25
2022-08-18T18:26:57.346Z,14.43
2022-08-18T18:29:32.280Z,16.13
2022-08-18T18:32:17.390Z,17.45
2022-08-18T18:34:45.945Z,17.95
2022-08-18T18:37:26.531Z,17.02
2022-08-18T18:40:02.570Z,18.08
2022-08-18T18:42:35.141Z,18.15
2022-08-18T18:45:07.973Z,18.17
2022-08-18T18:47:45.386Z,18.30
2022-08-18T18:50:35.763Z,18.02
2022-08-18T18:53:41.300Z,17.80
2022-08-18T18:57:00.056Z,18.13
2022-08-18T18:59:38.609Z,18.17
2022-08-18T19:02:33.113Z,17.75
2022-08-18T19:05:37.323Z,18.45
2022-08-18T19:08:28.413Z,18.05
2022-08-18T19:11:29.172Z,17.15
2022-08-18T19:14:26.733Z,17.50
2022-08-18T19:17:00.484Z,18.42
2022-08-18T19:19:39.078Z,17.90
2022-08-18T19:22:22.364Z,17.10
2022-08-18T19:25:00.316Z,18.23
2022-08-18T19:27:34.237Z,17.05
2022-08-18T19:30:07.985Z,14.57
2022-08-18T19:32:57.270Z,15.88
2022-08-18T19:35:58.745Z,15.38
2022-08-18T19:38:34.108Z,16.13
2022-08-18T19:41:11.211Z,15.50
2022-08-18T19:43:44.434Z,17.13
2022-08-18T19:46:38.114Z,15.75
2022-08-18T19:49:20.501Z,18.65
2022-08-18T19:51:50.073Z,19.77
2022-08-18T19:54:40.123Z,18.92
2022-08-18T19:57:11.387Z,20.13
2022-08-18T19:59:57.710Z,19.25
2022-08-18T20:02:49.149Z,18.52
2022-08-18T20:05:56.624Z,18.60
2022-08-18T20:11:17.235Z,18.30
2022-08-18T20:13:45.322Z,17.60
2022-08-18T20:16:31.378Z,17.83
2022-08-18T20:19:33.366Z,16.63
2022-08-18T20:22:02.607Z,17.17
2022-08-18T20:24:44.802Z,17.30
2022-08-18T20:27:35.325Z,17.60
2022-08-18T20:30:26.476Z,17.25
2022-08-18T20:33:10.117Z,16.40
2022-08-18T20:35:57.321Z,16.55
2022-08-18T20:38:41.802Z,17.13
2022-08-18T20:41:28.770Z,16.30
2022-08-18T20:44:12.652Z,16.92
2022-08-18T20:46:59.512Z,14.70
2022-08-18T20:50:09.182Z,15.50
2022-08-18T20:52:50.187Z,15.45
2022-08-18T20:55:42.376Z,15.10
2022-08-18T20:58:15.505Z,14.20
2022-08-18T21:00:44.645Z,14.27
2022-08-18T21:03:13.778Z,13.35
2022-08-18T21:05:43.790Z,14.00
2022-08-18T21:08:17.001Z,16.17
2022-08-18T21:10:51.718Z,16.13
2022-08-18T21:13:36.339Z,15.82
2022-08-18T21:16:04.566Z,15.90
2022-08-18T21:18:35.357Z,14.60
2022-08-18T21:21:19.246Z,13.88
2022-08-18T21:23:56.140Z,15.45
2022-08-18T21:26:24.159Z,16.60
2022-08-18T21:29:14.290Z,15.48
2022-08-18T21:31:45.155Z,15.15
2022-08-18T21:34:31.939Z,14.50
2022-08-18T21:37:02.168Z,15.38
2022-08-18T21:39:30.193Z,16.05
2022-08-18T21:41:58.310Z,15.40
2022-08-18T21:44:41.752Z,14.98
2022-08-18T21:47:29.768Z,14.07
2022-08-18T21:50:09.957Z,13.40
2022-08-18T21:52:40.703Z,13.55
2022-08-18T21:55:33.690Z,14.25
2022-08-18T21:58:06.170Z,14.65
2022-08-18T22:00:38.817Z,13.60
2022-08-18T22:03:10.931Z,14.50
2022-08-18T22:05:58.195Z,15.73
2022-08-18T22:08:32.267Z,15.52
2022-08-18T22:11:59.671Z,14.25
2022-08-18T22:14:54.922Z,14.77
2022-08-18T22:17:52.739Z,15.02
2022-08-18T22:20:41.528Z,15.90
2022-08-18T22:23:33.537Z,14.35
2022-08-18T22:26:14.520Z,14.10
2022-08-18T22:29:13.416Z,12.90
2022-08-18T22:31:49.121Z,13.40
2022-08-18T22:34:28.133Z,13.88
2022-08-18T22:37:14.808Z,13.75
2022-08-18T22:40:03.298Z,13.57
2022-08-18T22:42:33.310Z,13.45
2022-08-18T22:45:07.971Z,13.90
2022-08-18T22:47:43.642Z,13.43
2022-08-18T22:50:13.686Z,13.90
2022-08-18T22:52:44.712Z,13.85
2022-08-18T22:55:14.031Z,14.30
2022-08-18T22:57:42.815Z,13.98
2022-08-18T23:00:14.641Z,13.60
2022-08-18T23:02:44.004Z,13.73
2022-08-18T23:05:12.235Z,14.52
2022-08-18T23:07:42.686Z,13.02
2022-08-18T23:10:13.923Z,12.80
2022-08-18T23:12:47.022Z,13.23
2022-08-18T23:15:16.007Z,12.90
2022-08-18T23:17:44.047Z,13.13
2022-08-18T23:20:17.470Z,12.55
2022-08-18T23:22:46.486Z,12.95
2022-08-18T23:25:15.231Z,13.48
2022-08-18T23:27:43.213Z,13.93
2022-08-18T23:30:12.795Z,13.05
2022-08-18T23:32:40.677Z,13.38
2022-08-18T23:35:08.770Z,14.48
2022-08-18T23:37:40.403Z,15.07
2022-08-18T23:40:26.218Z,14.13
2022-08-18T23:43:01.968Z,13.07
2022-08-18T23:45:39.591Z,13.95
2022-08-18T23:48:08.047Z,14.45
2022-08-18T23:50:44.013Z,13.93
2022-08-18T23:53:15.363Z,15.02
2022-08-18T23:55:43.754Z,15.05
2022-08-18T23:58:11.839Z,14.07
